sensor_id;sensor_type;location;lat;lon;timestamp;P1;durP1;ratioP1;P2;durP2;ratioP2
79487;SDS011;68949;53.176;18.088;2023-07-31T00:01:38;4.00;;;1.30;;
79487;SDS011;68949;53.176;18.088;2023-07-31T00:04:05;4.10;;;1.60;;
79487;SDS011;68949;53.176;18.088;2023-07-31T00:06:31;5.10;;;1.30;;
79487;SDS011;68949;53.176;18.088;2023-07-31T00:08:58;5.80;;;1.80;;
79487;SDS011;68949;53.176;18.088;2023-07-31T00:11:25;4.50;;;1.40;;
79487;SDS011;68949;53.176;18.088;2023-07-31T00:13:53;4.30;;;1.40;;
79487;SDS011;68949;53.176;18.088;2023-07-31T00:16:20;4.80;;;1.50;;
79487;SDS011;68949;53.176;18.088;2023-07-31T00:18:47;4.60;;;1.50;;
79487;SDS011;68949;53.176;18.088;2023-07-31T00:21:13;5.70;;;2.10;;
79487;SDS011;68949;53.176;18.088;2023-07-31T00:23:40;5.00;;;1.70;;
79487;SDS011;68949;53.176;18.088;2023-07-31T00:26:06;4.60;;;1.70;;
79487;SDS011;68949;53.176;18.088;2023-07-31T00:28:33;4.90;;;2.10;;
79487;SDS011;68949;53.176;18.088;2023-07-31T00:31:00;4.20;;;1.50;;
79487;SDS011;68949;53.176;18.088;2023-07-31T00:33:29;4.70;;;1.80;;
79487;SDS011;68949;53.176;18.088;2023-07-31T00:35:57;5.50;;;1.80;;
79487;SDS011;68949;53.176;18.088;2023-07-31T00:38:26;4.30;;;1.10;;
79487;SDS011;68949;53.176;18.088;2023-07-31T00:40:52;7.20;;;1.80;;
79487;SDS011;68949;53.176;18.088;2023-07-31T00:43:20;4.40;;;1.80;;
79487;SDS011;68949;53.176;18.088;2023-07-31T00:45:46;4.40;;;1.50;;
79487;SDS011;68949;53.176;18.088;2023-07-31T00:48:13;4.30;;;1.60;;
79487;SDS011;68949;53.176;18.088;2023-07-31T00:50:41;5.40;;;1.90;;
79487;SDS011;68949;53.176;18.088;2023-07-31T00:53:07;4.10;;;1.70;;
79487;SDS011;68949;53.176;18.088;2023-07-31T00:55:34;4.70;;;1.50;;
79487;SDS011;68949;53.176;18.088;2023-07-31T00:58:01;4.40;;;1.30;;
79487;SDS011;68949;53.176;18.088;2023-07-31T01:00:27;6.10;;;1.60;;
79487;SDS011;68949;53.176;18.088;2023-07-31T01:02:54;3.70;;;1.10;;
79487;SDS011;68949;53.176;18.088;2023-07-31T01:05:33;3.80;;;1.30;;
79487;SDS011;68949;53.176;18.088;2023-07-31T01:08:22;4.40;;;1.30;;
79487;SDS011;68949;53.176;18.088;2023-07-31T01:11:02;7.30;;;1.80;;
79487;SDS011;68949;53.176;18.088;2023-07-31T01:13:36;3.90;;;1.50;;
79487;SDS011;68949;53.176;18.088;2023-07-31T01:16:03;4.40;;;1.50;;
79487;SDS011;68949;53.176;18.088;2023-07-31T01:18:29;4.40;;;1.80;;
79487;SDS011;68949;53.176;18.088;2023-07-31T01:21:18;6.30;;;2.10;;
79487;SDS011;68949;53.176;18.088;2023-07-31T01:26:59;4.20;;;1.80;;
79487;SDS011;68949;53.176;18.088;2023-07-31T01:29:53;5.20;;;1.90;;
79487;SDS011;68949;53.176;18.088;2023-07-31T01:32:28;4.30;;;1.70;;
79487;SDS011;68949;53.176;18.088;2023-07-31T01:34:57;4.50;;;2.20;;
79487;SDS011;68949;53.176;18.088;2023-07-31T01:37:29;4.60;;;1.80;;
79487;SDS011;68949;53.176;18.088;2023-07-31T01:39:56;4.90;;;2.00;;
79487;SDS011;68949;53.176;18.088;2023-07-31T01:42:23;4.10;;;1.80;;
79487;SDS011;68949;53.176;18.088;2023-07-31T01:44:50;5.50;;;2.00;;
79487;SDS011;68949;53.176;18.088;2023-07-31T01:47:17;5.70;;;1.80;;
79487;SDS011;68949;53.176;18.088;2023-07-31T01:49:43;4.90;;;1.80;;
79487;SDS011;68949;53.176;18.088;2023-07-31T01:52:10;7.20;;;2.10;;
79487;SDS011;68949;53.176;18.088;2023-07-31T01:54:37;5.00;;;1.70;;
79487;SDS011;68949;53.176;18.088;2023-07-31T01:57:04;7.80;;;2.70;;
79487;SDS011;68949;53.176;18.088;2023-07-31T01:59:30;6.90;;;1.90;;
79487;SDS011;68949;53.176;18.088;2023-07-31T02:01:57;5.20;;;2.00;;
79487;SDS011;68949;53.176;18.088;2023-07-31T02:04:24;7.40;;;2.30;;
79487;SDS011;68949;53.176;18.088;2023-07-31T02:06:50;4.50;;;1.80;;
79487;SDS011;68949;53.176;18.088;2023-07-31T02:09:17;5.00;;;1.90;;
79487;SDS011;68949;53.176;18.088;2023-07-31T02:11:43;6.20;;;2.20;;
79487;SDS011;68949;53.176;18.088;2023-07-31T02:14:10;5.10;;;1.70;;
79487;SDS011;68949;53.176;18.088;2023-07-31T02:16:37;6.70;;;2.00;;
79487;SDS011;68949;53.176;18.088;2023-07-31T02:19:03;5.20;;;1.90;;
79487;SDS011;68949;53.176;18.088;2023-07-31T02:21:30;4.90;;;2.00;;
79487;SDS011;68949;53.176;18.088;2023-07-31T02:23:57;6.40;;;1.80;;
79487;SDS011;68949;53.176;18.088;2023-07-31T02:26:23;5.10;;;2.30;;
79487;SDS011;68949;53.176;18.088;2023-07-31T02:28:50;6.50;;;2.10;;
79487;SDS011;68949;53.176;18.088;2023-07-31T02:31:17;6.80;;;2.00;;
79487;SDS011;68949;53.176;18.088;2023-07-31T02:33:43;6.40;;;2.20;;
79487;SDS011;68949;53.176;18.088;2023-07-31T02:36:10;4.60;;;1.90;;
79487;SDS011;68949;53.176;18.088;2023-07-31T02:38:37;5.40;;;2.00;;
79487;SDS011;68949;53.176;18.088;2023-07-31T02:41:04;5.10;;;2.10;;
79487;SDS011;68949;53.176;18.088;2023-07-31T02:43:30;6.50;;;1.80;;
79487;SDS011;68949;53.176;18.088;2023-07-31T02:45:57;5.10;;;2.10;;
79487;SDS011;68949;53.176;18.088;2023-07-31T02:48:24;6.10;;;1.90;;
79487;SDS011;68949;53.176;18.088;2023-07-31T02:50:51;5.00;;;2.10;;
79487;SDS011;68949;53.176;18.088;2023-07-31T02:53:17;6.50;;;2.00;;
79487;SDS011;68949;53.176;18.088;2023-07-31T02:55:44;5.10;;;2.10;;
79487;SDS011;68949;53.176;18.088;2023-07-31T02:58:10;5.90;;;1.70;;
79487;SDS011;68949;53.176;18.088;2023-07-31T03:00:42;5.80;;;1.90;;
79487;SDS011;68949;53.176;18.088;2023-07-31T03:03:09;4.40;;;1.90;;
79487;SDS011;68949;53.176;18.088;2023-07-31T03:05:36;5.70;;;2.40;;
79487;SDS011;68949;53.176;18.088;2023-07-31T03:08:04;5.30;;;2.10;;
79487;SDS011;68949;53.176;18.088;2023-07-31T03:10:30;6.10;;;1.80;;
79487;SDS011;68949;53.176;18.088;2023-07-31T03:12:57;7.00;;;1.80;;
79487;SDS011;68949;53.176;18.088;2023-07-31T03:15:24;4.80;;;1.90;;
79487;SDS011;68949;53.176;18.088;2023-07-31T03:17:50;5.80;;;2.10;;
79487;SDS011;68949;53.176;18.088;2023-07-31T03:20:17;6.10;;;2.20;;
79487;SDS011;68949;53.176;18.088;2023-07-31T03:22:43;5.60;;;2.10;;
79487;SDS011;68949;53.176;18.088;2023-07-31T03:25:11;5.70;;;2.20;;
79487;SDS011;68949;53.176;18.088;2023-07-31T03:27:39;6.40;;;2.40;;
79487;SDS011;68949;53.176;18.088;2023-07-31T03:30:06;7.60;;;2.20;;
79487;SDS011;68949;53.176;18.088;2023-07-31T03:32:33;5.40;;;2.00;;
79487;SDS011;68949;53.176;18.088;2023-07-31T03:35:00;4.90;;;2.00;;
79487;SDS011;68949;53.176;18.088;2023-07-31T03:37:26;4.80;;;2.10;;
79487;SDS011;68949;53.176;18.088;2023-07-31T03:39:53;5.10;;;2.20;;
79487;SDS011;68949;53.176;18.088;2023-07-31T03:42:20;6.30;;;2.80;;
79487;SDS011;68949;53.176;18.088;2023-07-31T03:44:47;5.40;;;2.20;;
79487;SDS011;68949;53.176;18.088;2023-07-31T03:47:13;7.00;;;2.20;;
79487;SDS011;68949;53.176;18.088;2023-07-31T03:49:40;4.40;;;2.00;;
79487;SDS011;68949;53.176;18.088;2023-07-31T03:52:07;4.70;;;1.50;;
79487;SDS011;68949;53.176;18.088;2023-07-31T03:54:34;4.00;;;1.70;;
79487;SDS011;68949;53.176;18.088;2023-07-31T03:57:00;6.80;;;2.60;;
79487;SDS011;68949;53.176;18.088;2023-07-31T03:59:27;5.40;;;1.90;;
79487;SDS011;68949;53.176;18.088;2023-07-31T04:01:53;6.30;;;2.10;;
79487;SDS011;68949;53.176;18.088;2023-07-31T04:04:20;5.60;;;2.70;;
79487;SDS011;68949;53.176;18.088;2023-07-31T04:06:47;4.60;;;2.70;;
79487;SDS011;68949;53.176;18.088;2023-07-31T04:09:13;4.90;;;2.50;;
79487;SDS011;68949;53.176;18.088;2023-07-31T04:11:40;6.80;;;2.80;;
79487;SDS011;68949;53.176;18.088;2023-07-31T04:14:07;5.20;;;2.10;;
79487;SDS011;68949;53.176;18.088;2023-07-31T04:16:33;4.80;;;1.80;;
79487;SDS011;68949;53.176;18.088;2023-07-31T04:19:00;7.50;;;2.10;;
79487;SDS011;68949;53.176;18.088;2023-07-31T04:21:29;4.30;;;1.60;;
79487;SDS011;68949;53.176;18.088;2023-07-31T04:23:56;5.80;;;2.30;;
79487;SDS011;68949;53.176;18.088;2023-07-31T04:26:22;5.70;;;1.90;;
79487;SDS011;68949;53.176;18.088;2023-07-31T04:28:49;5.30;;;2.10;;
79487;SDS011;68949;53.176;18.088;2023-07-31T04:31:15;4.60;;;1.60;;
79487;SDS011;68949;53.176;18.088;2023-07-31T04:33:42;5.80;;;1.90;;
79487;SDS011;68949;53.176;18.088;2023-07-31T04:36:09;3.70;;;1.60;;
79487;SDS011;68949;53.176;18.088;2023-07-31T04:38:35;5.90;;;1.70;;
79487;SDS011;68949;53.176;18.088;2023-07-31T04:41:02;3.90;;;1.40;;
79487;SDS011;68949;53.176;18.088;2023-07-31T04:43:30;4.80;;;2.10;;
79487;SDS011;68949;53.176;18.088;2023-07-31T04:45:56;4.90;;;1.60;;
79487;SDS011;68949;53.176;18.088;2023-07-31T04:48:24;4.60;;;1.90;;
79487;SDS011;68949;53.176;18.088;2023-07-31T04:50:51;4.80;;;2.00;;
79487;SDS011;68949;53.176;18.088;2023-07-31T04:53:17;5.10;;;2.00;;
79487;SDS011;68949;53.176;18.088;2023-07-31T04:55:44;6.80;;;1.70;;
79487;SDS011;68949;53.176;18.088;2023-07-31T04:58:10;5.60;;;1.80;;
79487;SDS011;68949;53.176;18.088;2023-07-31T05:00:37;5.30;;;2.00;;
79487;SDS011;68949;53.176;18.088;2023-07-31T05:03:04;5.10;;;1.70;;
79487;SDS011;68949;53.176;18.088;2023-07-31T05:05:31;6.90;;;2.10;;
79487;SDS011;68949;53.176;18.088;2023-07-31T05:07:58;4.30;;;2.00;;
79487;SDS011;68949;53.176;18.088;2023-07-31T05:10:24;4.40;;;1.60;;
79487;SDS011;68949;53.176;18.088;2023-07-31T05:12:51;5.90;;;1.60;;
79487;SDS011;68949;53.176;18.088;2023-07-31T05:15:18;4.90;;;1.50;;
79487;SDS011;68949;53.176;18.088;2023-07-31T05:17:44;4.80;;;1.50;;
79487;SDS011;68949;53.176;18.088;2023-07-31T05:20:11;4.20;;;1.60;;
79487;SDS011;68949;53.176;18.088;2023-07-31T05:22:38;5.10;;;1.60;;
79487;SDS011;68949;53.176;18.088;2023-07-31T05:25:05;4.60;;;1.40;;
79487;SDS011;68949;53.176;18.088;2023-07-31T05:27:32;3.30;;;1.20;;
79487;SDS011;68949;53.176;18.088;2023-07-31T05:29:59;8.00;;;2.10;;
79487;SDS011;68949;53.176;18.088;2023-07-31T05:32:25;4.30;;;1.40;;
79487;SDS011;68949;53.176;18.088;2023-07-31T05:34:52;3.60;;;1.50;;
79487;SDS011;68949;53.176;18.088;2023-07-31T05:37:20;4.40;;;1.40;;
79487;SDS011;68949;53.176;18.088;2023-07-31T05:39:46;4.00;;;1.30;;
79487;SDS011;68949;53.176;18.088;2023-07-31T05:42:13;5.30;;;1.70;;
79487;SDS011;68949;53.176;18.088;2023-07-31T05:44:40;4.70;;;1.70;;
79487;SDS011;68949;53.176;18.088;2023-07-31T05:47:06;4.10;;;1.40;;
79487;SDS011;68949;53.176;18.088;2023-07-31T05:49:34;3.40;;;1.10;;
79487;SDS011;68949;53.176;18.088;2023-07-31T05:52:00;5.90;;;1.80;;
79487;SDS011;68949;53.176;18.088;2023-07-31T05:54:27;4.60;;;1.80;;
79487;SDS011;68949;53.176;18.088;2023-07-31T05:56:54;4.40;;;1.50;;
79487;SDS011;68949;53.176;18.088;2023-07-31T05:59:20;4.90;;;1.50;;
79487;SDS011;68949;53.176;18.088;2023-07-31T06:01:47;6.00;;;1.60;;
79487;SDS011;68949;53.176;18.088;2023-07-31T06:04:13;5.10;;;1.50;;
79487;SDS011;68949;53.176;18.088;2023-07-31T06:06:40;5.40;;;1.60;;
79487;SDS011;68949;53.176;18.088;2023-07-31T06:09:07;4.50;;;1.60;;
79487;SDS011;68949;53.176;18.088;2023-07-31T06:11:33;4.00;;;1.20;;
79487;SDS011;68949;53.176;18.088;2023-07-31T06:14:00;5.30;;;1.10;;
79487;SDS011;68949;53.176;18.088;2023-07-31T06:16:27;5.50;;;1.60;;
79487;SDS011;68949;53.176;18.088;2023-07-31T06:18:53;4.70;;;1.30;;
79487;SDS011;68949;53.176;18.088;2023-07-31T06:21:20;4.40;;;1.30;;
79487;SDS011;68949;53.176;18.088;2023-07-31T06:23:47;3.80;;;1.20;;
79487;SDS011;68949;53.176;18.088;2023-07-31T06:26:13;4.40;;;1.40;;
79487;SDS011;68949;53.176;18.088;2023-07-31T06:28:40;4.50;;;1.50;;
79487;SDS011;68949;53.176;18.088;2023-07-31T06:31:08;7.00;;;1.50;;
79487;SDS011;68949;53.176;18.088;2023-07-31T06:33:35;5.00;;;1.40;;
79487;SDS011;68949;53.176;18.088;2023-07-31T06:36:01;4.50;;;1.20;;
79487;SDS011;68949;53.176;18.088;2023-07-31T06:38:28;4.00;;;1.10;;
79487;SDS011;68949;53.176;18.088;2023-07-31T06:40:55;3.60;;;1.10;;
79487;SDS011;68949;53.176;18.088;2023-07-31T06:43:22;4.40;;;1.50;;
79487;SDS011;68949;53.176;18.088;2023-07-31T06:45:48;4.20;;;1.10;;
79487;SDS011;68949;53.176;18.088;2023-07-31T06:48:17;3.30;;;1.20;;
79487;SDS011;68949;53.176;18.088;2023-07-31T06:50:44;4.00;;;1.10;;
79487;SDS011;68949;53.176;18.088;2023-07-31T06:53:10;4.00;;;1.20;;
79487;SDS011;68949;53.176;18.088;2023-07-31T06:55:37;4.40;;;1.20;;
79487;SDS011;68949;53.176;18.088;2023-07-31T06:58:04;3.60;;;1.10;;
79487;SDS011;68949;53.176;18.088;2023-07-31T07:00:30;4.60;;;1.50;;
79487;SDS011;68949;53.176;18.088;2023-07-31T07:02:58;4.00;;;1.30;;
79487;SDS011;68949;53.176;18.088;2023-07-31T07:05:25;4.80;;;1.30;;
79487;SDS011;68949;53.176;18.088;2023-07-31T07:07:52;4.10;;;1.10;;
79487;SDS011;68949;53.176;18.088;2023-07-31T07:10:19;3.70;;;1.30;;
79487;SDS011;68949;53.176;18.088;2023-07-31T07:12:46;3.70;;;1.20;;
79487;SDS011;68949;53.176;18.088;2023-07-31T07:15:13;4.00;;;1.00;;
79487;SDS011;68949;53.176;18.088;2023-07-31T07:17:39;5.50;;;1.30;;
79487;SDS011;68949;53.176;18.088;2023-07-31T07:20:07;5.10;;;1.60;;
79487;SDS011;68949;53.176;18.088;2023-07-31T07:22:34;3.60;;;1.00;;
79487;SDS011;68949;53.176;18.088;2023-07-31T07:25:02;5.00;;;1.20;;
79487;SDS011;68949;53.176;18.088;2023-07-31T07:27:30;3.60;;;1.00;;
79487;SDS011;68949;53.176;18.088;2023-07-31T07:29:57;5.00;;;1.20;;
79487;SDS011;68949;53.176;18.088;2023-07-31T07:32:23;4.70;;;1.50;;
79487;SDS011;68949;53.176;18.088;2023-07-31T07:34:50;4.50;;;1.20;;
79487;SDS011;68949;53.176;18.088;2023-07-31T07:37:17;5.40;;;1.00;;
79487;SDS011;68949;53.176;18.088;2023-07-31T07:39:44;3.70;;;1.30;;
79487;SDS011;68949;53.176;18.088;2023-07-31T07:42:11;4.80;;;1.00;;
79487;SDS011;68949;53.176;18.088;2023-07-31T07:44:38;3.90;;;1.20;;
79487;SDS011;68949;53.176;18.088;2023-07-31T07:47:04;6.00;;;1.30;;
79487;SDS011;68949;53.176;18.088;2023-07-31T07:49:34;3.50;;;1.10;;
79487;SDS011;68949;53.176;18.088;2023-07-31T07:52:03;4.50;;;1.20;;
79487;SDS011;68949;53.176;18.088;2023-07-31T07:54:30;3.10;;;0.90;;
79487;SDS011;68949;53.176;18.088;2023-07-31T07:56:57;3.50;;;1.00;;
79487;SDS011;68949;53.176;18.088;2023-07-31T07:59:24;5.00;;;1.20;;
79487;SDS011;68949;53.176;18.088;2023-07-31T08:01:51;6.10;;;1.30;;
79487;SDS011;68949;53.176;18.088;2023-07-31T08:04:18;6.10;;;1.20;;
79487;SDS011;68949;53.176;18.088;2023-07-31T08:06:45;5.00;;;1.30;;
79487;SDS011;68949;53.176;18.088;2023-07-31T08:09:11;4.10;;;1.10;;
79487;SDS011;68949;53.176;18.088;2023-07-31T08:11:38;4.80;;;1.20;;
79487;SDS011;68949;53.176;18.088;2023-07-31T08:14:05;5.30;;;1.20;;
79487;SDS011;68949;53.176;18.088;2023-07-31T08:16:31;3.20;;;1.10;;
79487;SDS011;68949;53.176;18.088;2023-07-31T08:18:58;5.00;;;1.50;;
79487;SDS011;68949;53.176;18.088;2023-07-31T08:21:25;3.50;;;1.10;;
79487;SDS011;68949;53.176;18.088;2023-07-31T08:23:52;4.40;;;1.20;;
79487;SDS011;68949;53.176;18.088;2023-07-31T08:26:19;4.80;;;1.10;;
79487;SDS011;68949;53.176;18.088;2023-07-31T08:28:47;3.00;;;0.90;;
79487;SDS011;68949;53.176;18.088;2023-07-31T08:31:14;4.10;;;1.20;;
79487;SDS011;68949;53.176;18.088;2023-07-31T08:33:40;5.20;;;0.90;;
79487;SDS011;68949;53.176;18.088;2023-07-31T08:36:07;4.20;;;0.90;;
79487;SDS011;68949;53.176;18.088;2023-07-31T08:38:34;3.00;;;0.70;;
79487;SDS011;68949;53.176;18.088;2023-07-31T08:41:03;3.30;;;0.90;;
79487;SDS011;68949;53.176;18.088;2023-07-31T08:43:32;5.10;;;1.00;;
79487;SDS011;68949;53.176;18.088;2023-07-31T08:46:00;5.60;;;1.30;;
79487;SDS011;68949;53.176;18.088;2023-07-31T08:48:29;5.00;;;1.10;;
79487;SDS011;68949;53.176;18.088;2023-07-31T08:50:58;4.10;;;0.90;;
79487;SDS011;68949;53.176;18.088;2023-07-31T08:53:25;3.20;;;0.80;;
79487;SDS011;68949;53.176;18.088;2023-07-31T08:55:53;5.00;;;1.00;;
79487;SDS011;68949;53.176;18.088;2023-07-31T08:58:21;5.20;;;1.20;;
79487;SDS011;68949;53.176;18.088;2023-07-31T09:00:50;4.10;;;1.00;;
79487;SDS011;68949;53.176;18.088;2023-07-31T09:03:18;3.70;;;1.20;;
79487;SDS011;68949;53.176;18.088;2023-07-31T09:05:46;3.70;;;1.10;;
79487;SDS011;68949;53.176;18.088;2023-07-31T09:08:15;5.40;;;1.00;;
79487;SDS011;68949;53.176;18.088;2023-07-31T09:10:46;4.20;;;0.90;;
79487;SDS011;68949;53.176;18.088;2023-07-31T09:13:14;6.40;;;1.30;;
79487;SDS011;68949;53.176;18.088;2023-07-31T09:15:44;7.00;;;1.30;;
79487;SDS011;68949;53.176;18.088;2023-07-31T09:18:12;4.30;;;1.10;;
79487;SDS011;68949;53.176;18.088;2023-07-31T09:20:40;4.40;;;0.90;;
79487;SDS011;68949;53.176;18.088;2023-07-31T09:23:12;3.70;;;1.00;;
79487;SDS011;68949;53.176;18.088;2023-07-31T09:25:44;4.80;;;0.90;;
79487;SDS011;68949;53.176;18.088;2023-07-31T09:28:11;4.30;;;1.10;;
79487;SDS011;68949;53.176;18.088;2023-07-31T09:30:48;3.70;;;1.10;;
79487;SDS011;68949;53.176;18.088;2023-07-31T09:33:18;4.10;;;1.00;;
79487;SDS011;68949;53.176;18.088;2023-07-31T09:35:47;4.10;;;1.00;;
79487;SDS011;68949;53.176;18.088;2023-07-31T09:38:17;4.80;;;1.10;;
79487;SDS011;68949;53.176;18.088;2023-07-31T09:40:48;3.60;;;0.90;;
79487;SDS011;68949;53.176;18.088;2023-07-31T09:43:19;3.80;;;1.30;;
79487;SDS011;68949;53.176;18.088;2023-07-31T09:45:48;6.20;;;1.60;;
79487;SDS011;68949;53.176;18.088;2023-07-31T09:48:20;4.10;;;1.40;;
79487;SDS011;68949;53.176;18.088;2023-07-31T09:50:48;3.80;;;1.20;;
79487;SDS011;68949;53.176;18.088;2023-07-31T09:53:16;4.50;;;1.30;;
79487;SDS011;68949;53.176;18.088;2023-07-31T09:55:51;6.30;;;1.30;;
79487;SDS011;68949;53.176;18.088;2023-07-31T09:58:18;4.80;;;1.40;;
79487;SDS011;68949;53.176;18.088;2023-07-31T10:00:46;5.40;;;1.50;;
79487;SDS011;68949;53.176;18.088;2023-07-31T10:03:14;5.30;;;1.70;;
79487;SDS011;68949;53.176;18.088;2023-07-31T10:05:46;6.00;;;2.00;;
79487;SDS011;68949;53.176;18.088;2023-07-31T10:08:21;6.80;;;1.60;;
79487;SDS011;68949;53.176;18.088;2023-07-31T10:11:02;4.50;;;1.90;;
79487;SDS011;68949;53.176;18.088;2023-07-31T10:13:34;5.70;;;2.00;;
79487;SDS011;68949;53.176;18.088;2023-07-31T10:16:01;5.40;;;1.60;;
79487;SDS011;68949;53.176;18.088;2023-07-31T10:18:30;6.80;;;2.00;;
79487;SDS011;68949;53.176;18.088;2023-07-31T10:20:59;5.80;;;1.90;;
79487;SDS011;68949;53.176;18.088;2023-07-31T10:23:27;6.40;;;2.00;;
79487;SDS011;68949;53.176;18.088;2023-07-31T10:25:55;4.50;;;1.70;;
79487;SDS011;68949;53.176;18.088;2023-07-31T10:28:25;7.50;;;1.80;;
79487;SDS011;68949;53.176;18.088;2023-07-31T10:30:53;5.70;;;2.00;;
79487;SDS011;68949;53.176;18.088;2023-07-31T10:33:21;5.30;;;2.00;;
79487;SDS011;68949;53.176;18.088;2023-07-31T10:35:48;5.20;;;1.70;;
79487;SDS011;68949;53.176;18.088;2023-07-31T10:38:15;5.60;;;2.20;;
79487;SDS011;68949;53.176;18.088;2023-07-31T10:40:42;6.00;;;2.10;;
79487;SDS011;68949;53.176;18.088;2023-07-31T10:43:23;5.00;;;1.90;;
79487;SDS011;68949;53.176;18.088;2023-07-31T10:45:53;6.30;;;2.00;;
79487;SDS011;68949;53.176;18.088;2023-07-31T10:48:20;6.10;;;1.80;;
79487;SDS011;68949;53.176;18.088;2023-07-31T10:50:49;6.30;;;1.80;;
79487;SDS011;68949;53.176;18.088;2023-07-31T10:53:31;8.80;;;2.20;;
79487;SDS011;68949;53.176;18.088;2023-07-31T10:56:07;8.30;;;1.90;;
79487;SDS011;68949;53.176;18.088;2023-07-31T10:58:36;5.60;;;2.20;;
79487;SDS011;68949;53.176;18.088;2023-07-31T11:01:05;6.00;;;1.80;;
79487;SDS011;68949;53.176;18.088;2023-07-31T11:03:45;7.10;;;2.20;;
79487;SDS011;68949;53.176;18.088;2023-07-31T11:06:14;7.80;;;2.10;;
79487;SDS011;68949;53.176;18.088;2023-07-31T11:08:50;5.40;;;1.90;;
79487;SDS011;68949;53.176;18.088;2023-07-31T11:11:18;6.60;;;1.60;;
79487;SDS011;68949;53.176;18.088;2023-07-31T11:13:51;6.00;;;2.10;;
79487;SDS011;68949;53.176;18.088;2023-07-31T11:16:24;8.70;;;1.60;;
79487;SDS011;68949;53.176;18.088;2023-07-31T11:18:52;6.20;;;1.80;;
79487;SDS011;68949;53.176;18.088;2023-07-31T11:21:22;5.70;;;1.50;;
79487;SDS011;68949;53.176;18.088;2023-07-31T11:23:53;6.70;;;2.00;;
79487;SDS011;68949;53.176;18.088;2023-07-31T11:26:23;6.30;;;1.40;;
79487;SDS011;68949;53.176;18.088;2023-07-31T11:28:51;4.80;;;1.30;;
79487;SDS011;68949;53.176;18.088;2023-07-31T11:31:18;4.80;;;1.30;;
79487;SDS011;68949;53.176;18.088;2023-07-31T11:33:45;5.70;;;1.50;;
79487;SDS011;68949;53.176;18.088;2023-07-31T11:36:20;4.90;;;1.00;;
79487;SDS011;68949;53.176;18.088;2023-07-31T11:38:47;5.80;;;1.10;;
79487;SDS011;68949;53.176;18.088;2023-07-31T11:41:17;4.70;;;1.30;;
79487;SDS011;68949;53.176;18.088;2023-07-31T11:43:45;4.40;;;1.00;;
79487;SDS011;68949;53.176;18.088;2023-07-31T11:46:13;3.70;;;1.00;;
79487;SDS011;68949;53.176;18.088;2023-07-31T11:48:41;3.30;;;0.70;;
79487;SDS011;68949;53.176;18.088;2023-07-31T11:51:09;4.80;;;1.10;;
79487;SDS011;68949;53.176;18.088;2023-07-31T11:53:53;3.90;;;1.10;;
79487;SDS011;68949;53.176;18.088;2023-07-31T11:56:24;3.80;;;1.20;;
79487;SDS011;68949;53.176;18.088;2023-07-31T11:58:57;3.20;;;0.80;;
79487;SDS011;68949;53.176;18.088;2023-07-31T12:01:26;5.40;;;1.60;;
79487;SDS011;68949;53.176;18.088;2023-07-31T12:03:54;5.00;;;1.20;;
79487;SDS011;68949;53.176;18.088;2023-07-31T12:06:32;4.90;;;1.50;;
79487;SDS011;68949;53.176;18.088;2023-07-31T12:09:04;5.00;;;1.30;;
79487;SDS011;68949;53.176;18.088;2023-07-31T12:11:54;3.90;;;1.50;;
79487;SDS011;68949;53.176;18.088;2023-07-31T12:14:21;4.50;;;1.60;;
79487;SDS011;68949;53.176;18.088;2023-07-31T12:17:00;6.50;;;1.70;;
79487;SDS011;68949;53.176;18.088;2023-07-31T12:19:31;5.00;;;1.50;;
79487;SDS011;68949;53.176;18.088;2023-07-31T12:21:59;7.80;;;1.80;;
79487;SDS011;68949;53.176;18.088;2023-07-31T12:24:28;4.50;;;1.40;;
79487;SDS011;68949;53.176;18.088;2023-07-31T12:26:55;4.50;;;1.00;;
79487;SDS011;68949;53.176;18.088;2023-07-31T12:29:22;4.00;;;1.30;;
79487;SDS011;68949;53.176;18.088;2023-07-31T12:31:49;3.70;;;1.40;;
79487;SDS011;68949;53.176;18.088;2023-07-31T12:34:17;3.20;;;1.10;;
79487;SDS011;68949;53.176;18.088;2023-07-31T12:36:45;5.20;;;1.30;;
79487;SDS011;68949;53.176;18.088;2023-07-31T12:39:12;4.40;;;0.90;;
79487;SDS011;68949;53.176;18.088;2023-07-31T12:41:39;2.80;;;0.70;;
79487;SDS011;68949;53.176;18.088;2023-07-31T12:44:05;2.90;;;0.90;;
79487;SDS011;68949;53.176;18.088;2023-07-31T12:46:32;5.20;;;1.30;;
79487;SDS011;68949;53.176;18.088;2023-07-31T12:48:59;2.80;;;0.50;;
79487;SDS011;68949;53.176;18.088;2023-07-31T12:51:26;4.10;;;1.10;;
79487;SDS011;68949;53.176;18.088;2023-07-31T12:53:52;3.40;;;0.80;;
79487;SDS011;68949;53.176;18.088;2023-07-31T12:56:19;3.00;;;0.90;;
79487;SDS011;68949;53.176;18.088;2023-07-31T12:58:46;2.70;;;1.20;;
79487;SDS011;68949;53.176;18.088;2023-07-31T13:01:12;3.40;;;1.10;;
79487;SDS011;68949;53.176;18.088;2023-07-31T13:03:39;4.40;;;1.00;;
79487;SDS011;68949;53.176;18.088;2023-07-31T13:06:06;4.00;;;1.10;;
79487;SDS011;68949;53.176;18.088;2023-07-31T13:08:33;3.60;;;1.20;;
79487;SDS011;68949;53.176;18.088;2023-07-31T13:11:00;3.30;;;1.00;;
79487;SDS011;68949;53.176;18.088;2023-07-31T13:13:26;2.90;;;1.10;;
79487;SDS011;68949;53.176;18.088;2023-07-31T13:15:53;2.60;;;0.80;;
79487;SDS011;68949;53.176;18.088;2023-07-31T13:18:19;3.90;;;1.00;;
79487;SDS011;68949;53.176;18.088;2023-07-31T13:20:46;4.60;;;1.30;;
79487;SDS011;68949;53.176;18.088;2023-07-31T13:23:13;3.70;;;1.40;;
79487;SDS011;68949;53.176;18.088;2023-07-31T13:25:39;4.30;;;1.20;;
79487;SDS011;68949;53.176;18.088;2023-07-31T13:28:06;4.30;;;1.40;;
79487;SDS011;68949;53.176;18.088;2023-07-31T13:30:33;3.20;;;1.20;;
79487;SDS011;68949;53.176;18.088;2023-07-31T13:32:59;3.80;;;1.20;;
79487;SDS011;68949;53.176;18.088;2023-07-31T13:35:26;5.60;;;1.30;;
79487;SDS011;68949;53.176;18.088;2023-07-31T13:37:53;4.90;;;1.40;;
79487;SDS011;68949;53.176;18.088;2023-07-31T13:40:19;5.10;;;1.40;;
79487;SDS011;68949;53.176;18.088;2023-07-31T13:42:46;3.60;;;1.30;;
79487;SDS011;68949;53.176;18.088;2023-07-31T13:45:14;4.50;;;1.50;;
79487;SDS011;68949;53.176;18.088;2023-07-31T13:47:41;4.30;;;1.40;;
79487;SDS011;68949;53.176;18.088;2023-07-31T13:50:08;5.50;;;1.30;;
79487;SDS011;68949;53.176;18.088;2023-07-31T13:52:35;5.00;;;1.70;;
79487;SDS011;68949;53.176;18.088;2023-07-31T13:55:01;3.60;;;1.50;;
79487;SDS011;68949;53.176;18.088;2023-07-31T13:57:28;4.40;;;1.50;;
79487;SDS011;68949;53.176;18.088;2023-07-31T13:59:55;3.40;;;1.00;;
79487;SDS011;68949;53.176;18.088;2023-07-31T14:02:22;4.30;;;1.40;;
79487;SDS011;68949;53.176;18.088;2023-07-31T14:04:49;6.50;;;1.50;;
79487;SDS011;68949;53.176;18.088;2023-07-31T14:07:15;4.40;;;1.90;;
79487;SDS011;68949;53.176;18.088;2023-07-31T14:09:43;5.20;;;2.00;;
79487;SDS011;68949;53.176;18.088;2023-07-31T14:12:10;3.70;;;1.40;;
79487;SDS011;68949;53.176;18.088;2023-07-31T14:14:37;3.40;;;1.20;;
79487;SDS011;68949;53.176;18.088;2023-07-31T14:17:04;5.00;;;1.40;;
79487;SDS011;68949;53.176;18.088;2023-07-31T14:19:31;3.80;;;1.20;;
79487;SDS011;68949;53.176;18.088;2023-07-31T14:21:59;3.30;;;1.10;;
79487;SDS011;68949;53.176;18.088;2023-07-31T14:24:26;6.30;;;1.50;;
79487;SDS011;68949;53.176;18.088;2023-07-31T14:26:53;4.50;;;1.80;;
79487;SDS011;68949;53.176;18.088;2023-07-31T14:29:19;7.20;;;1.80;;
79487;SDS011;68949;53.176;18.088;2023-07-31T14:31:46;5.60;;;1.80;;
79487;SDS011;68949;53.176;18.088;2023-07-31T14:34:13;4.80;;;1.40;;
79487;SDS011;68949;53.176;18.088;2023-07-31T14:36:40;5.00;;;1.90;;
79487;SDS011;68949;53.176;18.088;2023-07-31T14:39:06;5.50;;;1.30;;
79487;SDS011;68949;53.176;18.088;2023-07-31T14:41:33;4.30;;;1.70;;